Lorraine — A8IZ3 — position and weather

sailwx.info

Track history (hours):
 
Tides and Currents Weather Stations Pressure Air Temp Water Temp Dewpoint Dewpoint Depression Visibility Wind Speed Wind Dir Waves Ship Positions

Lorraine

Last reported at 2017-Dec-13 01:01 UTC. Time now 2017-Dec-17 11:56 UTC.
Position N 35°59' E 120°31'.

Length 221 m; draft 10.7 m.

Type: Ship. MMSI: 636012905.

Date/timePositionNaut miles runAvg speedWind from/ knotsBaromVisibWave heightAir tempDewpointWater temp
2017-Dec-13 01:01N 35°59' E 120°31'017.3
2017-Dec-13 01:00N 35°59' E 120°31'713.8
2017-Dec-13 00:29N 36°01' E 120°22'4 9.1
2017-Dec-13 00:00N 36°02' E 120°17'3 5.7
2017-Dec-12 23:27N 36°01' E 120°13'0 0.4
2017-Dec-12 22:54N 36°01' E 120°13'0 0.0
2017-Dec-12 22:15N 36°01' E 120°13'0 0.0
2017-Dec-12 22:00N 36°01' E 120°13'0 0.0
2017-Dec-12 21:20N 36°01' E 120°13'0 0.0
2017-Dec-12 20:50N 36°01' E 120°13'0 0.0
2017-Dec-12 20:20N 36°01' E 120°13'0 0.0
2017-Dec-12 19:47N 36°01' E 120°13'0 0.0
2017-Dec-12 19:19N 36°01' E 120°13'0 0.0
2017-Dec-12 18:46N 36°01' E 120°13'0 0.0
2017-Dec-12 18:18N 36°01' E 120°13'0 0.0
2017-Dec-12 17:58N 36°01' E 120°13'0 0.0
2017-Dec-12 16:41N 36°01' E 120°13'0 0.0
2017-Dec-12 16:11N 36°01' E 120°13'0 0.0
2017-Dec-12 14:23N 36°01' E 120°13'0 0.0
2017-Dec-12 13:56N 36°01' E 120°13'0 0.0
2017-Dec-12 13:25N 36°01' E 120°13'0 0.0
2017-Dec-12 12:50N 36°01' E 120°13'0 0.2
2017-Dec-12 11:46N 36°01' E 120°13'2 6.2
2017-Dec-12 11:30N 36°02' E 120°15'180 4.1
2017-Dec-10 16:11N 38°44' E 121°52'4 9.4
2017-Dec-10 15:44N 38°40' E 121°50'2 9.4
2017-Dec-10 15:30N 38°38' E 121°50'  
Track history (hours):
 
Tides and Currents Weather Stations Pressure Air Temp Water Temp Dewpoint Dewpoint Depression Visibility Wind Speed Wind Dir Waves Ship Positions

Lorraine

Last reported at 2017-Dec-13 01:01 UTC. Time now 2017-Dec-17 11:56 UTC.
Position N 35°59' E 120°31'.

Length 221 m; draft 10.7 m.

Type: Ship. MMSI: 636012905.

Date/timePositionNaut miles runAvg speedWind from/ knotsBaromVisibWave heightAir tempDewpointWater temp
2017-Dec-13 01:01N 35°59' E 120°31'017.3
2017-Dec-13 01:00N 35°59' E 120°31'713.8
2017-Dec-13 00:29N 36°01' E 120°22'4 9.1
2017-Dec-13 00:00N 36°02' E 120°17'3 5.7
2017-Dec-12 23:27N 36°01' E 120°13'0 0.4
2017-Dec-12 22:54N 36°01' E 120°13'0 0.0
2017-Dec-12 22:15N 36°01' E 120°13'0 0.0
2017-Dec-12 22:00N 36°01' E 120°13'0 0.0
2017-Dec-12 21:20N 36°01' E 120°13'0 0.0
2017-Dec-12 20:50N 36°01' E 120°13'0 0.0
2017-Dec-12 20:20N 36°01' E 120°13'0 0.0
2017-Dec-12 19:47N 36°01' E 120°13'0 0.0
2017-Dec-12 19:19N 36°01' E 120°13'0 0.0
2017-Dec-12 18:46N 36°01' E 120°13'0 0.0
2017-Dec-12 18:18N 36°01' E 120°13'0 0.0
2017-Dec-12 17:58N 36°01' E 120°13'0 0.0
2017-Dec-12 16:41N 36°01' E 120°13'0 0.0
2017-Dec-12 16:11N 36°01' E 120°13'0 0.0
2017-Dec-12 14:23N 36°01' E 120°13'0 0.0
2017-Dec-12 13:56N 36°01' E 120°13'0 0.0
2017-Dec-12 13:25N 36°01' E 120°13'0 0.0
2017-Dec-12 12:50N 36°01' E 120°13'0 0.2
2017-Dec-12 11:46N 36°01' E 120°13'2 6.2
2017-Dec-12 11:30N 36°02' E 120°15'180 4.1
2017-Dec-10 16:11N 38°44' E 121°52'4 9.4
2017-Dec-10 15:44N 38°40' E 121°50'2 9.4
2017-Dec-10 15:30N 38°38' E 121°50'  

Dump ship's entire track history